createdAt,value
2019-03-25T00:01:55.501Z,2.93
2019-03-25T00:06:58.896Z,3.03
2019-03-25T00:12:02.188Z,3.37
2019-03-25T00:17:05.402Z,3.73
2019-03-25T00:22:08.889Z,3.43
2019-03-25T00:27:12.145Z,3.30
2019-03-25T00:32:15.515Z,3.10
2019-03-25T00:37:18.780Z,4.07
2019-03-25T00:42:22.067Z,3.83
2019-03-25T00:47:25.354Z,3.27
2019-03-25T00:52:28.585Z,2.90
2019-03-25T00:57:31.817Z,3.87
2019-03-25T01:02:35.023Z,3.93
2019-03-25T01:07:38.223Z,3.50
2019-03-25T01:12:41.563Z,3.33
2019-03-25T01:17:44.853Z,2.60
2019-03-25T01:22:49.100Z,3.37
2019-03-25T01:27:52.702Z,5.17
2019-03-25T01:32:55.812Z,3.57
2019-03-25T01:37:58.930Z,4.07
2019-03-25T01:43:03.003Z,4.00
2019-03-25T01:48:06.317Z,3.33
2019-03-25T01:53:09.504Z,3.80
2019-03-25T01:58:12.709Z,2.23
2019-03-25T02:03:15.887Z,2.30
2019-03-25T02:08:19.055Z,1.80
2019-03-25T02:19:09.559Z,2.80
2019-03-25T02:24:12.815Z,2.80
2019-03-25T02:29:16.118Z,2.33
2019-03-25T02:34:20.249Z,1.50
2019-03-25T02:39:23.488Z,2.30
2019-03-25T02:44:26.947Z,2.60
2019-03-25T02:49:30.272Z,2.50
2019-03-25T02:54:34.549Z,3.10
2019-03-25T02:59:37.774Z,3.40
2019-03-25T03:04:41.061Z,2.60
2019-03-25T03:09:44.241Z,3.10
2019-03-25T03:14:47.375Z,4.43
2019-03-25T03:19:55.082Z,4.23
2019-03-25T03:24:57.060Z,3.90
2019-03-25T03:30:00.892Z,3.00
2019-03-25T03:35:04.550Z,3.10
2019-03-25T03:40:08.186Z,2.97
2019-03-25T03:45:11.689Z,2.17
2019-03-25T03:50:24.326Z,3.33
2019-03-25T03:55:47.843Z,2.40
2019-03-25T04:00:51.097Z,2.07
2019-03-25T04:05:54.300Z,2.43
2019-03-25T04:10:57.726Z,2.30
2019-03-25T04:16:01.688Z,3.10
2019-03-25T04:21:05.231Z,3.20
2019-03-25T04:26:08.513Z,3.00
2019-03-25T04:31:12.766Z,3.23
2019-03-25T04:36:16.009Z,4.17
2019-03-25T04:41:19.266Z,4.20
2019-03-25T04:46:23.415Z,4.20
2019-03-25T04:51:26.712Z,4.03
2019-03-25T04:56:39.118Z,3.57
2019-03-25T05:01:35.043Z,3.23
2019-03-25T05:06:38.336Z,2.30
2019-03-25T05:11:41.651Z,2.60
2019-03-25T05:16:45.070Z,2.50
2019-03-25T05:21:48.276Z,2.33
2019-03-25T05:26:51.560Z,3.53
2019-03-25T05:31:54.914Z,2.77
2019-03-25T05:36:58.186Z,2.10
2019-03-25T05:42:01.421Z,2.10
2019-03-25T05:47:04.733Z,2.20
2019-03-25T05:52:09.031Z,2.23
2019-03-25T05:57:12.270Z,2.10
2019-03-25T06:02:15.571Z,2.10
2019-03-25T06:07:18.785Z,2.93
2019-03-25T06:12:21.969Z,3.47
2019-03-25T06:17:25.267Z,3.77
2019-03-25T06:22:28.586Z,3.33
2019-03-25T06:27:31.868Z,4.00
2019-03-25T06:32:35.038Z,3.70
2019-03-25T06:37:38.332Z,4.00
2019-03-25T06:42:41.616Z,3.57
2019-03-25T06:47:44.879Z,3.70
2019-03-25T06:52:48.094Z,3.50
2019-03-25T06:57:51.417Z,4.03
2019-03-25T07:02:54.598Z,2.70
2019-03-25T07:07:58.056Z,3.97
2019-03-25T07:13:01.780Z,4.70
2019-03-25T07:18:05.562Z,4.00
2019-03-25T07:23:08.804Z,5.03
2019-03-25T07:28:11.911Z,3.43
2019-03-25T07:33:15.212Z,3.63
2019-03-25T07:38:18.483Z,2.90
2019-03-25T07:43:21.676Z,2.50
2019-03-25T07:48:24.916Z,2.80
2019-03-25T07:53:28.157Z,2.70
2019-03-25T07:58:31.308Z,2.60
2019-03-25T08:03:34.529Z,2.13
2019-03-25T08:08:37.799Z,2.40
2019-03-25T08:13:40.994Z,3.00
2019-03-25T08:18:44.695Z,2.17
2019-03-25T08:23:47.817Z,2.57
2019-03-25T08:28:50.984Z,1.80
2019-03-25T08:33:54.181Z,1.73
2019-03-25T08:38:57.337Z,1.50
2019-03-25T08:44:00.561Z,1.50
2019-03-25T08:49:03.785Z,1.53
2019-03-25T08:54:07.090Z,1.50
2019-03-25T08:59:10.257Z,1.43
2019-03-25T09:04:18.835Z,1.50
2019-03-25T09:09:21.969Z,1.57
2019-03-25T09:14:25.152Z,1.20
2019-03-25T09:19:28.291Z,1.20
2019-03-25T09:24:33.004Z,1.10
2019-03-25T09:29:36.411Z,1.13
2019-03-25T09:34:39.559Z,1.10
2019-03-25T09:39:42.835Z,1.30
2019-03-25T09:44:46.040Z,1.83
2019-03-25T09:49:49.227Z,1.40
2019-03-25T09:54:52.455Z,1.97
2019-03-25T09:59:55.598Z,1.80
2019-03-25T10:04:58.738Z,1.83
2019-03-25T10:10:02.317Z,2.60
2019-03-25T10:15:06.852Z,2.10
2019-03-25T10:20:10.424Z,1.53
2019-03-25T10:25:15.105Z,1.57
2019-03-25T10:30:18.850Z,1.63
2019-03-25T10:35:22.211Z,1.27
2019-03-25T10:40:25.469Z,1.27
2019-03-25T10:45:28.847Z,0.97
2019-03-25T10:50:31.974Z,1.70
2019-03-25T10:55:36.229Z,1.60
2019-03-25T11:00:40.449Z,1.30
2019-03-25T11:05:43.977Z,1.20
2019-03-25T11:10:47.201Z,1.50
2019-03-25T11:15:50.462Z,1.47
2019-03-25T11:20:53.798Z,2.07
2019-03-25T11:25:57.174Z,1.40
2019-03-25T11:31:01.492Z,1.20
2019-03-25T11:36:07.958Z,1.50
2019-03-25T11:41:11.144Z,0.97
2019-03-25T11:46:14.284Z,0.80
2019-03-25T11:51:17.500Z,1.63
2019-03-25T11:56:20.891Z,0.83
2019-03-25T12:01:24.040Z,1.70
2019-03-25T12:06:28.461Z,1.10
2019-03-25T12:11:31.796Z,1.30
2019-03-25T12:16:35.059Z,1.43
2019-03-25T12:21:38.325Z,1.50
2019-03-25T12:26:41.558Z,1.50
2019-03-25T12:31:44.867Z,1.50
2019-03-25T12:36:48.088Z,1.33
2019-03-25T12:41:54.138Z,1.00
2019-03-25T12:46:57.484Z,1.17
2019-03-25T12:52:00.767Z,1.17
2019-03-25T12:57:03.989Z,1.00
2019-03-25T13:02:07.244Z,1.20
2019-03-25T13:07:10.428Z,1.07
2019-03-25T13:12:13.799Z,1.70
2019-03-25T13:17:17.006Z,1.23
2019-03-25T13:22:20.299Z,1.20
2019-03-25T13:27:23.594Z,1.10
2019-03-25T13:32:26.903Z,1.10
2019-03-25T13:37:30.159Z,1.20
2019-03-25T13:42:33.439Z,1.23
2019-03-25T13:47:36.680Z,1.20
2019-03-25T13:52:39.996Z,1.20
2019-03-25T13:57:43.288Z,1.23
2019-03-25T14:02:46.496Z,1.10
2019-03-25T14:07:49.833Z,1.27
2019-03-25T14:12:53.084Z,1.17
2019-03-25T14:17:56.342Z,2.20
2019-03-25T14:22:59.646Z,0.90
2019-03-25T14:28:03.163Z,1.13
2019-03-25T14:33:06.526Z,1.07
2019-03-25T14:38:09.816Z,0.90
2019-03-25T14:43:13.153Z,0.68
2019-03-25T14:48:16.420Z,0.72
2019-03-25T14:53:19.844Z,0.60
2019-03-25T14:58:23.127Z,0.57
2019-03-25T15:03:26.343Z,0.90
2019-03-25T15:08:29.615Z,0.72
2019-03-25T15:13:33.059Z,1.00
2019-03-25T15:18:36.472Z,1.27
2019-03-25T15:23:39.894Z,1.07
2019-03-25T15:28:43.107Z,1.30
2019-03-25T15:33:46.396Z,1.63
2019-03-25T15:38:49.881Z,0.93
2019-03-25T15:43:53.137Z,1.63
2019-03-25T15:48:56.376Z,1.50
2019-03-25T15:53:59.684Z,1.57
2019-03-25T15:59:03.127Z,1.50
2019-03-25T16:04:12.415Z,1.40
2019-03-25T16:09:15.592Z,1.30
2019-03-25T16:14:18.728Z,1.67
2019-03-25T16:19:21.977Z,1.60
2019-03-25T16:24:25.305Z,1.67
2019-03-25T16:29:28.726Z,1.63
2019-03-25T16:34:32.055Z,1.30
2019-03-25T16:39:35.363Z,1.80
2019-03-25T16:44:38.717Z,1.20
2019-03-25T16:49:41.929Z,0.90
2019-03-25T16:54:45.238Z,2.33
2019-03-25T16:59:48.766Z,1.20
2019-03-25T17:04:52.017Z,0.93
2019-03-25T17:09:55.174Z,1.50
2019-03-25T17:14:58.482Z,1.00
2019-03-25T17:20:01.747Z,1.10
2019-03-25T17:25:06.171Z,1.47
2019-03-25T17:30:12.167Z,1.27
2019-03-25T17:35:15.563Z,1.00
2019-03-25T17:40:19.675Z,1.10
2019-03-25T17:45:23.092Z,1.17
2019-03-25T17:50:26.405Z,1.87
2019-03-25T17:55:30.632Z,1.17
2019-03-25T18:01:03.864Z,1.13
2019-03-25T18:06:08.124Z,1.93
2019-03-25T18:11:11.331Z,1.80
2019-03-25T18:16:14.854Z,1.30
2019-03-25T18:21:18.085Z,1.57
2019-03-25T18:26:21.426Z,1.93
2019-03-25T18:31:24.725Z,1.90
2019-03-25T18:36:27.925Z,1.93
2019-03-25T18:41:31.107Z,1.67
2019-03-25T18:46:34.363Z,1.80
2019-03-25T18:51:37.452Z,1.40
2019-03-25T18:56:41.971Z,1.00
2019-03-25T19:01:54.017Z,1.40
2019-03-25T19:06:50.481Z,2.33
2019-03-25T19:11:53.819Z,2.90
2019-03-25T19:16:57.114Z,1.90
2019-03-25T19:22:01.127Z,3.00
2019-03-25T19:27:05.635Z,1.37
2019-03-25T19:32:10.553Z,1.30
2019-03-25T19:37:14.514Z,1.93
2019-03-25T19:42:18.528Z,1.87
2019-03-25T19:47:22.400Z,1.20
2019-03-25T19:52:26.771Z,1.27
2019-03-25T19:57:30.892Z,1.20
2019-03-25T20:02:34.921Z,1.63
2019-03-25T20:07:39.148Z,2.17
2019-03-25T20:12:43.127Z,1.70
2019-03-25T20:17:47.155Z,2.13
2019-03-25T20:22:51.137Z,1.50
2019-03-25T20:27:55.456Z,1.40
2019-03-25T20:32:59.372Z,1.70
2019-03-25T20:38:03.561Z,2.57
2019-03-25T20:43:07.739Z,1.67
2019-03-25T20:48:12.196Z,2.73
2019-03-25T20:53:15.920Z,1.37
2019-03-25T20:58:19.961Z,1.90
2019-03-25T21:03:23.413Z,1.40
2019-03-25T21:08:26.766Z,1.47
2019-03-25T21:13:30.020Z,1.77
2019-03-25T21:18:36.118Z,1.40
2019-03-25T21:23:39.562Z,1.50
2019-03-25T21:28:42.940Z,1.70
2019-03-25T21:33:46.355Z,2.10
2019-03-25T21:38:50.131Z,2.70
2019-03-25T21:43:54.546Z,2.27
2019-03-25T21:48:57.815Z,2.87
2019-03-25T21:54:01.053Z,2.20
2019-03-25T21:59:05.508Z,2.83
2019-03-25T22:04:08.775Z,2.80
2019-03-25T22:09:12.151Z,2.50
2019-03-25T22:14:15.609Z,2.67
2019-03-25T22:19:18.871Z,3.33
2019-03-25T22:24:22.309Z,2.97
2019-03-25T22:29:25.672Z,2.73
2019-03-25T22:34:28.784Z,2.90
2019-03-25T22:39:32.044Z,3.00
2019-03-25T22:44:35.297Z,2.07
2019-03-25T22:49:38.535Z,1.40
2019-03-25T22:54:41.780Z,2.27
2019-03-25T22:59:45.111Z,1.53
2019-03-25T23:04:48.350Z,1.50
2019-03-25T23:09:52.769Z,1.53
2019-03-25T23:14:55.959Z,1.87
2019-03-25T23:19:59.076Z,1.67
2019-03-25T23:25:02.304Z,1.17
2019-03-25T23:30:05.847Z,1.40
2019-03-25T23:35:09.139Z,1.53
2019-03-25T23:40:12.556Z,1.10
2019-03-25T23:45:15.951Z,1.10
2019-03-25T23:50:19.287Z,1.60
2019-03-25T23:55:22.507Z,1.63
